| time (UTC) | temp C | wind direction | speed KPH | gust KPH | rain 1hr cm | rain 24hr cm | rain mn cm | humidity % | barometer mb |
| 20260904174533 | 25 | 154 | 1.6 | 11.3 | 0.00 | 2.03 | 0.33 | 91 | 1017.8 |
| 20260904174019 | 24 | 136 | 1.6 | 11.3 | 0.00 | 2.03 | 0.33 | 93 | 1017.8 |
| 20260904173517 | 24 | 125 | 1.6 | 9.7 | 0.00 | 2.03 | 0.33 | 92 | 1017.7 |
| 20260904173036 | 24 | 120 | 1.6 | 9.7 | 0.00 | 2.03 | 0.33 | 93 | 1017.7 |
| 20260904172516 | 23 | 142 | 0.0 | 9.7 | 0.00 | 2.03 | 0.33 | 93 | 1017.7 |
| 20260904172020 | 23 | 80 | 1.6 | 9.7 | 0.00 | 2.03 | 0.33 | 94 | 1017.7 |
| 20260904171539 | 23 | 123 | 0.0 | 8.0 | 0.00 | 2.03 | 0.33 | 95 | 1017.8 |
| 20260904171020 | 23 | 163 | 1.6 | 9.7 | 0.00 | 2.03 | 0.33 | 96 | 1017.8 |
| 20260904170516 | 23 | 153 | 4.8 | 9.7 | 0.00 | 2.03 | 0.33 | 97 | 1017.8 |
| 20260904170031 | 23 | 199 | 0.0 | 9.7 | 0.00 | 2.03 | 0.33 | 97 | 1017.8 |
| 20260904165512 | 23 | 174 | 0.0 | 12.9 | 0.00 | 2.03 | 0.33 | 99 | 1017.9 |
| 20260904165015 | 23 | 92 | 1.6 | 12.9 | 0.00 | 2.03 | 0.33 | 99 | 1017.9 |
| 20260904164508 | 22 | 132 | 4.8 | 12.9 | 0.00 | 2.03 | 0.33 | 99 | 1017.9 |
| 20260904164005 | 22 | 66 | 3.2 | 12.9 | 0.00 | 2.03 | 0.33 | 99 | 1017.9 |
| 20260904163502 | 22 | 135 | 3.2 | 12.9 | 0.00 | 2.03 | 0.33 | 99 | 1017.9 |
| 20260904163010 | 22 | 116 | 3.2 | 12.9 | 0.03 | 2.03 | 0.33 | 99 | 1018.1 |
| 20260904162504 | 21 | 98 | 4.8 | 11.3 | 0.03 | 2.03 | 0.33 | 99 | 1018.2 |
| 20260904162008 | 21 | 101 | 1.6 | 6.4 | 0.03 | 2.03 | 0.33 | 99 | 1018.0 |
| 20260904161516 | 21 | 78 | 3.2 | 4.8 | 0.05 | 2.03 | 0.33 | 98 | 1017.6 |
| 20260904161011 | 21 | 352 | 0.0 | 0.0 | 0.08 | 2.03 | 0.33 | 99 | 1017.6 |
| 20260904160508 | 21 | 352 | 0.0 | 4.8 | 0.08 | 2.03 | 0.33 | 98 | 1017.4 |
| 20260904160024 | 21 | 352 | 0.0 | 4.8 | 0.08 | 2.03 | 0.33 | 99 | 1017.3 |
| 20260904155512 | 21 | 317 | 0.0 | 4.8 | 0.08 | 2.03 | 0.33 | 98 | 1017.2 |
| 20260904155006 | 21 | 340 | 0.0 | 3.2 | 0.10 | 2.03 | 0.33 | 99 | 1017.2 |
| 20260904154526 | 21 | 323 | 0.0 | 6.4 | 0.10 | 2.03 | 0.33 | 98 | 1017.2 |
| 20260904154018 | 21 | 321 | 1.6 | 6.4 | 0.13 | 2.03 | 0.33 | 98 | 1017.1 |
| 20260904153517 | 20 | 295 | 1.6 | 3.2 | 0.13 | 2.03 | 0.33 | 98 | 1017.3 |
| 20260904153019 | 20 | 295 | 0.0 | 4.8 | 0.10 | 2.01 | 0.30 | 98 | 1017.3 |
| 20260904152510 | 20 | 317 | 0.0 | 4.8 | 0.13 | 2.01 | 0.30 | 98 | 1017.3 |
| 20260904152016 | 20 | 313 | 1.6 | 4.8 | 0.15 | 2.01 | 0.30 | 98 | 1017.4 |
| 20260904151520 | 20 | 259 | 0.0 | 4.8 | 0.15 | 1.98 | 0.28 | 98 | 1017.5 |
| 20260904151006 | 20 | 261 | 0.0 | 9.7 | 0.13 | 1.96 | 0.25 | 98 | 1017.4 |
| 20260904150508 | 20 | 296 | 4.8 | 9.7 | 0.15 | 1.96 | 0.25 | 98 | 1017.3 |
| 20260904150020 | 20 | 273 | 3.2 | 6.4 | 0.15 | 1.96 | 0.25 | 98 | 1017.5 |
| 20260904145507 | 20 | 101 | 0.0 | 4.8 | 0.15 | 1.96 | 0.25 | 98 | 1017.8 |
| 20260904145010 | 20 | 89 | 1.6 | 4.8 | 0.15 | 1.93 | 0.23 | 98 | 1018.0 |
| 20260904144528 | 20 | 94 | 1.6 | 4.8 | 0.15 | 1.93 | 0.23 | 98 | 1017.9 |
| 20260904144017 | 20 | 116 | 0.0 | 4.8 | 0.15 | 1.91 | 0.20 | 98 | 1017.8 |
| 20260904143509 | 20 | 116 | 0.0 | 4.8 | 0.20 | 1.91 | 0.20 | 98 | 1018.0 |
| 20260904143034 | 20 | 115 | 1.6 | 4.8 | 0.20 | 1.91 | 0.20 | 98 | 1017.8 |
| 20260904142517 | 20 | 188 | 1.6 | 4.8 | 0.18 | 1.88 | 0.18 | 98 | 1017.5 |
| 20260904142023 | 20 | 143 | 0.0 | 3.2 | 0.15 | 1.85 | 0.15 | 98 | 1017.6 |
| 20260904141523 | 20 | 144 | 0.0 | 4.8 | 0.13 | 1.83 | 0.13 | 98 | 1017.6 |
| 20260904141013 | 20 | 92 | 1.6 | 11.3 | 0.13 | 1.83 | 0.13 | 98 | 1017.6 |
| 20260904140515 | 20 | 101 | 3.2 | 11.3 | 0.10 | 1.80 | 0.10 | 98 | 1017.6 |
| 20260904140032 | 20 | 111 | 3.2 | 11.3 | 0.10 | 1.80 | 0.10 | 98 | 1017.8 |
| 20260904135515 | 20 | 105 | 4.8 | 11.3 | 0.10 | 1.80 | 0.10 | 97 | 1017.8 |
| 20260904135008 | 20 | 92 | 4.8 | 11.3 | 0.08 | 1.78 | 0.08 | 97 | 1017.7 |
| 20260904134526 | 20 | 97 | 4.8 | 14.5 | 0.08 | 1.78 | 0.08 | 97 | 1017.8 |
| 20260904134008 | 20 | 102 | 3.2 | 14.5 | 0.05 | 1.75 | 0.05 | 97 | 1017.8 |
| 20260904133513 | 20 | 117 | 4.8 | 11.3 | 0.00 | 1.70 | 0.00 | 98 | 1017.6 |
| 20260904133029 | 20 | 122 | 1.6 | 4.8 | 0.00 | 1.70 | 0.00 | 98 | 1017.4 |
| 20260904132516 | 20 | 78 | 1.6 | 6.4 | 0.00 | 1.70 | 0.00 | 98 | 1017.2 |
| 20260904132012 | 20 | 114 | 1.6 | 6.4 | 0.00 | 1.70 | 0.00 | 98 | 1017.2 |
| 20260904131531 | 20 | 96 | 3.2 | 9.7 | 0.00 | 1.70 | 0.00 | 98 | 1017.1 |
| 20260904131017 | 20 | 70 | 3.2 | 9.7 | 0.00 | 1.70 | 0.00 | 98 | 1017.3 |
| 20260904130511 | 20 | 5 | 1.6 | 6.4 | 0.00 | 1.70 | 0.00 | 99 | 1017.1 |
| 20260904130027 | 20 | 5 | 3.2 | 6.4 | 0.00 | 1.70 | 0.00 | 98 | 1017.0 |
| 20260904125514 | 20 | 5 | 0.0 | 4.8 | 0.00 | 1.73 | 0.00 | 98 | 1017.1 |
| 20260904125019 | 20 | 5 | 1.6 | 3.2 | 0.00 | 1.75 | 0.00 | 98 | 1017.2 |
| 20260904124524 | 20 | 5 | 0.0 | 3.2 | 0.00 | 1.91 | 0.00 | 98 | 1017.2 |
| 20260904124012 | 20 | 5 | 0.0 | 3.2 | 0.00 | 2.16 | 0.00 | 98 | 1017.1 |
| 20260904123515 | 20 | 5 | 1.6 | 3.2 | 0.00 | 2.24 | 0.00 | 99 | 1017.2 |
| 20260904123032 | 20 | 283 | 0.0 | 3.2 | 0.00 | 2.31 | 0.00 | 99 | 1017.1 |
| 20260904122514 | 20 | 283 | 1.6 | 4.8 | 0.00 | 2.31 | 0.00 | 98 | 1017.1 |
| 20260904122017 | 20 | 283 | 1.6 | 4.8 | 0.00 | 2.31 | 0.00 | 98 | 1017.1 |
| 20260904121530 | 20 | 283 | 1.6 | 3.2 | 0.00 | 2.31 | 0.00 | 98 | 1017.1 |
| 20260904121014 | 20 | 283 | 0.0 | 3.2 | 0.00 | 2.31 | 0.00 | 99 | 1017.1 |
| 20260904120512 | 20 | 283 | 0.0 | 1.6 | 0.00 | 2.31 | 0.00 | 99 | 1017.3 |
| 20260904120044 | 20 | 283 | 0.0 | 1.6 | 0.00 | 2.31 | 0.00 | 99 | 1017.2 |
| 20260904115518 | 19 | 283 | 0.0 | 1.6 | 0.00 | 2.31 | 0.00 | 98 | 1017.1 |
| 20260904115013 | 19 | 281 | 0.0 | 3.2 | 0.00 | 2.31 | 0.00 | 98 | 1017.1 |
| 20260904114531 | 19 | 281 | 0.0 | 3.2 | 0.00 | 2.31 | 0.00 | 98 | 1017.1 |
| 20260904114016 | 19 | 281 | 0.0 | 4.8 | 0.00 | 2.31 | 0.00 | 98 | 1016.9 |
| 20260904113516 | 19 | 264 | 1.6 | 4.8 | 0.00 | 2.31 | 0.00 | 98 | 1016.9 |
| 20260904113036 | 19 | 242 | 1.6 | 4.8 | 0.00 | 2.31 | 0.00 | 98 | 1017.0 |
| 20260904112516 | 19 | 252 | 0.0 | 6.4 | 0.00 | 2.31 | 0.00 | 98 | 1017.0 |
| 20260904112011 | 19 | 231 | 1.6 | 6.4 | 0.00 | 2.31 | 0.00 | 98 | 1017.0 |
| 20260904111529 | 19 | 224 | 1.6 | 6.4 | 0.00 | 2.31 | 0.00 | 98 | 1017.0 |
| 20260904111014 | 19 | 241 | 3.2 | 4.8 | 0.00 | 2.31 | 0.00 | 98 | 1016.7 |
| 20260904110516 | 19 | 292 | 0.0 | 3.2 | 0.00 | 2.31 | 0.00 | 98 | 1016.6 |
| 20260904110030 | 19 | 292 | 0.0 | 3.2 | 0.00 | 2.31 | 0.00 | 98 | 1016.4 |
| 20260904105505 | 19 | 292 | 1.6 | 3.2 | 0.00 | 2.31 | 0.00 | 98 | 1016.3 |
| 20260904105005 | 19 | 298 | 1.6 | 3.2 | 0.00 | 2.31 | 0.00 | 98 | 1016.2 |
| 20260904104514 | 19 | 342 | 0.0 | 3.2 | 0.00 | 2.31 | 0.00 | 98 | 1016.2 |
| 20260904104011 | 19 | 342 | 1.6 | 3.2 | 0.00 | 2.31 | 0.00 | 98 | 1016.2 |
| 20260904103502 | 19 | 304 | 0.0 | 1.6 | 0.00 | 2.31 | 0.00 | 98 | 1016.1 |
| 20260904103022 | 19 | 53 | 0.0 | 0.0 | 0.00 | 2.31 | 0.00 | 98 | 1016.3 |
| 20260904102511 | 19 | 53 | 0.0 | 0.0 | 0.00 | 2.31 | 0.00 | 98 | 1016.2 |
| 20260904102010 | 19 | 53 | 0.0 | 0.0 | 0.00 | 2.31 | 0.00 | 98 | 1016.3 |
| 20260904101513 | 19 | 53 | 0.0 | 0.0 | 0.00 | 2.31 | 0.00 | 98 | 1016.4 |
| 20260904101010 | 19 | 53 | 0.0 | 0.0 | 0.00 | 2.31 | 0.00 | 98 | 1016.3 |
| 20260904100512 | 19 | 53 | 0.0 | 0.0 | 0.00 | 2.31 | 0.00 | 98 | 1016.3 |
| 20260904100032 | 19 | 53 | 0.0 | 1.6 | 0.00 | 2.31 | 0.00 | 98 | 1016.4 |
| 20260904095508 | 19 | 53 | 0.0 | 1.6 | 0.00 | 2.31 | 0.00 | 98 | 1016.4 |
| 20260904095003 | 19 | 53 | 0.0 | 1.6 | 0.00 | 2.31 | 0.00 | 98 | 1016.4 |
| 20260904094508 | 19 | 53 | 0.0 | 3.2 | 0.00 | 2.31 | 0.00 | 98 | 1016.4 |
| 20260904094001 | 19 | 53 | 0.0 | 3.2 | 0.00 | 2.31 | 0.00 | 98 | 1016.4 |
| 20260904093506 | 19 | 53 | 0.0 | 3.2 | 0.00 | 2.31 | 0.00 | 98 | 1016.4 |
| 20260904093016 | 19 | 53 | 0.0 | 3.2 | 0.00 | 2.31 | 0.00 | 98 | 1016.3 |
| 20260904092510 | 19 | 53 | 0.0 | 3.2 | 0.00 | 2.31 | 0.00 | 98 | 1016.3 |
| 20260904092005 | 19 | 53 | 0.0 | 3.2 | 0.00 | 2.31 | 0.00 | 98 | 1016.4 |
| 20260904091521 | 19 | 53 | 0.0 | 3.2 | 0.00 | 2.31 | 0.00 | 98 | 1016.3 |
| 20260904091012 | 19 | 53 | 0.0 | 4.8 | 0.00 | 2.31 | 0.00 | 98 | 1016.2 |
| 20260904090513 | 19 | 53 | 0.0 | 6.4 | 0.00 | 2.31 | 0.00 | 98 | 1016.1 |
| 20260904090019 | 19 | 13 | 1.6 | 6.4 | 0.00 | 2.31 | 0.00 | 98 | 1016.1 |
| 20260904085511 | 19 | 32 | 1.6 | 4.8 | 0.00 | 2.31 | 0.00 | 98 | 1016.1 |
| 20260904085017 | 19 | 355 | 1.6 | 4.8 | 0.00 | 2.31 | 0.00 | 98 | 1016.2 |
| 20260904084515 | 19 | 331 | 0.0 | 3.2 | 0.00 | 2.31 | 0.00 | 98 | 1016.1 |
| 20260904084013 | 19 | 331 | 0.0 | 3.2 | 0.00 | 2.31 | 0.00 | 98 | 1016.1 |
| 20260904083515 | 19 | 331 | 0.0 | 4.8 | 0.00 | 2.31 | 0.00 | 98 | 1016.1 |
| 20260904083018 | 19 | 317 | 1.6 | 4.8 | 0.00 | 2.31 | 0.00 | 98 | 1016.0 |
| 20260904082507 | 19 | 355 | 1.6 | 4.8 | 0.00 | 2.31 | 0.00 | 98 | 1016.2 |
| 20260904082009 | 19 | 355 | 1.6 | 4.8 | 0.00 | 2.31 | 0.00 | 98 | 1016.3 |
| 20260904081530 | 19 | 343 | 0.0 | 4.8 | 0.00 | 2.31 | 0.00 | 98 | 1016.3 |
| 20260904081010 | 19 | 306 | 0.0 | 3.2 | 0.00 | 2.31 | 0.00 | 98 | 1016.2 |
| 20260904080507 | 19 | 306 | 0.0 | 1.6 | 0.00 | 2.31 | 0.00 | 98 | 1016.4 |
| 20260904080034 | 19 | 306 | 0.0 | 4.8 | 0.00 | 2.31 | 0.00 | 98 | 1016.4 |
| 20260904075514 | 19 | 306 | 0.0 | 4.8 | 0.00 | 2.31 | 0.00 | 98 | 1016.4 |
| 20260904075011 | 19 | 61 | 0.0 | 1.6 | 0.00 | 2.31 | 0.00 | 98 | 1016.4 |
| 20260904074528 | 19 | 61 | 0.0 | 4.8 | 0.00 | 2.31 | 0.00 | 98 | 1016.4 |
| 20260904074016 | 19 | 61 | 0.0 | 4.8 | 0.00 | 2.31 | 0.00 | 98 | 1016.4 |
| 20260904073514 | 19 | 46 | 1.6 | 8.0 | 0.00 | 2.31 | 0.00 | 98 | 1016.6 |
| 20260904073020 | 19 | 61 | 3.2 | 8.0 | 0.00 | 2.31 | 0.00 | 98 | 1016.7 |
| 20260904072514 | 19 | 74 | 0.0 | 3.2 | 0.00 | 2.31 | 0.00 | 98 | 1016.7 |
| 20260904072015 | 19 | 90 | 0.0 | 6.4 | 0.00 | 2.31 | 0.00 | 98 | 1016.6 |
| 20260904071542 | 19 | 128 | 1.6 | 6.4 | 0.00 | 2.31 | 0.00 | 98 | 1016.7 |
| 20260904071008 | 19 | 111 | 1.6 | 6.4 | 0.00 | 2.31 | 0.00 | 98 | 1016.8 |
| 20260904070510 | 19 | 84 | 0.0 | 4.8 | 0.00 | 2.31 | 0.00 | 98 | 1016.7 |
| 20260904070023 | 19 | 84 | 1.6 | 4.8 | 0.00 | 2.31 | 0.00 | 98 | 1016.6 |
| 20260904065509 | 19 | 19 | 1.6 | 3.2 | 0.00 | 2.31 | 0.00 | 98 | 1016.5 |
| 20260904065014 | 19 | 11 | 0.0 | 3.2 | 0.00 | 2.31 | 0.00 | 98 | 1016.3 |
| 20260904064530 | 19 | 11 | 0.0 | 4.8 | 0.00 | 2.31 | 0.00 | 98 | 1016.4 |
| 20260904064012 | 19 | 11 | 0.0 | 6.4 | 0.00 | 2.31 | 0.00 | 98 | 1016.4 |
| 20260904063510 | 19 | 346 | 1.6 | 8.0 | 0.00 | 2.31 | 0.00 | 98 | 1016.4 |
| 20260904063032 | 20 | 15 | 3.2 | 8.0 | 0.00 | 2.31 | 0.00 | 98 | 1016.4 |
| 20260904062515 | 20 | 17 | 3.2 | 8.0 | 0.00 | 2.31 | 0.00 | 98 | 1016.4 |
| 20260904062015 | 20 | 351 | 3.2 | 9.7 | 0.00 | 2.31 | 0.00 | 98 | 1016.5 |
| 20260904061528 | 20 | 360 | 3.2 | 9.7 | 0.00 | 2.31 | 0.00 | 98 | 1016.6 |
| 20260904061013 | 20 | 5 | 3.2 | 8.0 | 0.00 | 2.31 | 0.00 | 98 | 1016.7 |
| 20260904060518 | 20 | 350 | 1.6 | 6.4 | 0.00 | 2.31 | 0.00 | 98 | 1016.7 |
| 20260904060026 | 20 | 348 | 0.0 | 8.0 | 0.00 | 2.31 | 0.00 | 98 | 1016.7 |
| 20260904055510 | 20 | 12 | 1.6 | 12.9 | 0.00 | 2.31 | 0.00 | 98 | 1016.9 |
| 20260904055008 | 20 | 343 | 3.2 | 12.9 | 0.00 | 2.31 | 0.00 | 98 | 1016.8 |
| 20260904054533 | 20 | 91 | 1.6 | 8.0 | 0.00 | 2.31 | 0.00 | 98 | 1016.8 |
| 20260904054013 | 20 | 313 | 3.2 | 8.0 | 0.00 | 2.31 | 0.00 | 98 | 1016.8 |
| 20260904053515 | 20 | 306 | 3.2 | 6.4 | 0.00 | 2.31 | 0.00 | 98 | 1016.7 |
| 20260904053030 | 20 | 5 | 0.0 | 4.8 | 0.00 | 2.31 | 0.00 | 98 | 1016.8 |
| 20260904052517 | 20 | 294 | 0.0 | 6.4 | 0.00 | 2.31 | 0.00 | 98 | 1016.7 |
| 20260904052012 | 20 | 227 | 3.2 | 11.3 | 0.00 | 2.31 | 0.00 | 98 | 1016.7 |
| 20260904051532 | 20 | 12 | 1.6 | 11.3 | 0.00 | 2.31 | 0.00 | 98 | 1016.7 |
| 20260904051019 | 20 | 28 | 3.2 | 6.4 | 0.00 | 2.31 | 0.00 | 98 | 1016.7 |
| 20260904050513 | 19 | 210 | 0.0 | 0.0 | 0.00 | 2.31 | 0.00 | 98 | 1016.8 |
| 20260904050031 | 19 | 210 | 0.0 | 1.6 | 0.00 | 2.31 | 0.00 | 98 | 1016.6 |
| 20260904045503 | 19 | 210 | 0.0 | 8.0 | 0.00 | 2.31 | 0.00 | 98 | 1016.6 |
| 20260904045003 | 19 | 210 | 0.0 | 8.0 | 0.00 | 2.31 | 0.00 | 98 | 1016.7 |
| 20260904044504 | 19 | 213 | 1.6 | 12.9 | 0.00 | 2.31 | 0.00 | 98 | 1016.6 |
| 20260904044003 | 19 | 248 | 4.8 | 12.9 | 0.00 | 2.31 | 0.00 | 98 | 1016.8 |
| 20260904043503 | 19 | 207 | 1.6 | 12.9 | 0.00 | 2.31 | 0.00 | 98 | 1016.7 |
| 20260904043005 | 19 | 202 | 3.2 | 12.9 | 0.00 | 2.31 | 0.00 | 97 | 1016.7 |
| 20260904042502 | 19 | 202 | 6.4 | 11.3 | 0.00 | 2.31 | 0.00 | 97 | 1016.4 |
| 20260904042004 | 19 | 207 | 3.2 | 8.0 | 0.00 | 2.31 | 0.00 | 97 | 1016.2 |
| 20260904041505 | 19 | 64 | 1.6 | 8.0 | 0.00 | 2.31 | 0.00 | 97 | 1015.9 |
| 20260904041004 | 19 | 76 | 3.2 | 8.0 | 0.00 | 2.31 | 0.00 | 97 | 1016.0 |
| 20260904040503 | 19 | 39 | 3.2 | 8.0 | 0.00 | 2.31 | 0.00 | 97 | 1015.9 |
| 20260904040005 | 19 | 5 | 3.2 | 8.0 | 0.00 | 2.31 | 0.00 | 97 | 1016.0 |
| 20260904035503 | 19 | 13 | 3.2 | 6.4 | 0.00 | 2.31 | 2.31 | 97 | 1016.2 |
| 20260904035003 | 19 | 5 | 3.2 | 8.0 | 0.00 | 2.31 | 2.31 | 97 | 1016.1 |
| 20260904034504 | 19 | 344 | 3.2 | 8.0 | 0.00 | 2.31 | 2.31 | 97 | 1016.2 |
| 20260904034002 | 19 | 17 | 3.2 | 14.5 | 0.00 | 2.31 | 2.31 | 97 | 1016.2 |
| 20260904033504 | 19 | 17 | 4.8 | 14.5 | 0.00 | 2.31 | 2.31 | 97 | 1016.3 |
| 20260904033038 | 19 | 33 | 3.2 | 11.3 | 0.03 | 2.31 | 2.31 | 97 | 1016.3 |
| 20260904032503 | 19 | 342 | 4.8 | 12.9 | 0.03 | 2.31 | 2.31 | 97 | 1016.4 |
| 20260904032003 | 19 | 360 | 3.2 | 12.9 | 0.03 | 2.31 | 2.31 | 97 | 1016.4 |
| 20260904031504 | 19 | 15 | 3.2 | 12.9 | 0.03 | 2.31 | 2.31 | 97 | 1016.4 |
| 20260904031003 | 19 | 19 | 4.8 | 9.7 | 0.03 | 2.31 | 2.31 | 97 | 1016.5 |
| 20260904030503 | 19 | 11 | 3.2 | 9.7 | 0.03 | 2.31 | 2.31 | 97 | 1016.7 |
| 20260904030004 | 19 | 13 | 4.8 | 9.7 | 0.03 | 2.31 | 2.31 | 97 | 1016.7 |
| 20260904025504 | 19 | 30 | 3.2 | 11.3 | 0.03 | 2.31 | 2.31 | 97 | 1016.7 |
| 20260904025002 | 19 | 336 | 3.2 | 12.9 | 0.03 | 2.31 | 2.31 | 97 | 1016.7 |
| 20260904024504 | 19 | 22 | 3.2 | 14.5 | 0.03 | 2.31 | 2.31 | 97 | 1016.7 |
| 20260904024005 | 20 | 12 | 4.8 | 14.5 | 0.03 | 2.31 | 2.31 | 97 | 1016.7 |
| 20260904023504 | 20 | 360 | 1.6 | 14.5 | 0.03 | 2.31 | 2.31 | 97 | 1016.8 |
| 20260904023006 | 20 | 17 | 4.8 | 14.5 | 0.00 | 2.29 | 2.29 | 97 | 1016.8 |
| 20260904022506 | 19 | 355 | 3.2 | 8.0 | 0.00 | 2.29 | 2.29 | 97 | 1016.9 |
| 20260904022003 | 19 | 355 | 1.6 | 8.0 | 0.00 | 2.29 | 2.29 | 97 | 1016.9 |
| 20260904021504 | 19 | 309 | 1.6 | 9.7 | 0.00 | 2.29 | 2.29 | 97 | 1016.9 |
| 20260904021005 | 19 | 302 | 3.2 | 9.7 | 0.00 | 2.29 | 2.29 | 97 | 1016.7 |
| 20260904020504 | 19 | 333 | 3.2 | 8.0 | 0.00 | 2.29 | 2.29 | 97 | 1016.6 |
| 20260904020004 | 19 | 326 | 1.6 | 8.0 | 0.00 | 2.29 | 2.29 | 97 | 1016.7 |
| 20260904015504 | 19 | 318 | 1.6 | 8.0 | 0.00 | 2.29 | 2.29 | 97 | 1016.7 |
| 20260904015004 | 19 | 299 | 1.6 | 9.7 | 0.00 | 2.29 | 2.29 | 97 | 1016.6 |
| 20260904014504 | 19 | 360 | 3.2 | 9.7 | 0.00 | 2.29 | 2.29 | 97 | 1016.7 |
| 20260904014007 | 19 | 338 | 3.2 | 8.0 | 0.00 | 2.29 | 2.29 | 97 | 1016.7 |
| 20260904013505 | 19 | 319 | 3.2 | 8.0 | 0.00 | 2.29 | 2.29 | 97 | 1016.5 |
| 20260904013005 | 19 | 336 | 3.2 | 8.0 | 0.00 | 2.29 | 2.29 | 96 | 1016.4 |
| 20260904012504 | 19 | 314 | 3.2 | 8.0 | 0.00 | 2.29 | 2.29 | 96 | 1016.3 |
| 20260904012005 | 19 | 302 | 3.2 | 6.4 | 0.00 | 2.29 | 2.29 | 96 | 1016.4 |
| 20260904011514 | 19 | 286 | 0.0 | 6.4 | 0.00 | 2.29 | 2.29 | 96 | 1016.3 |
| 20260904011003 | 19 | 294 | 1.6 | 6.4 | 0.00 | 2.29 | 2.29 | 96 | 1016.4 |
| 20260904010504 | 19 | 294 | 3.2 | 6.4 | 0.00 | 2.29 | 2.29 | 96 | 1016.5 |
| 20260904010010 | 19 | 311 | 1.6 | 6.4 | 0.00 | 2.29 | 2.29 | 96 | 1016.7 |
| 20260904005506 | 19 | 279 | 3.2 | 11.3 | 0.00 | 2.29 | 2.29 | 96 | 1016.6 |
| 20260904005003 | 19 | 289 | 3.2 | 11.3 | 0.00 | 2.29 | 2.29 | 96 | 1016.7 |
| 20260904004510 | 19 | 281 | 4.8 | 9.7 | 0.03 | 2.29 | 2.29 | 96 | 1017.0 |
| 20260904004005 | 19 | 263 | 3.2 | 9.7 | 0.05 | 2.29 | 2.29 | 96 | 1017.1 |
| 20260904003506 | 20 | 302 | 3.2 | 8.0 | 0.08 | 2.29 | 2.29 | 96 | 1017.2 |
| 20260904003012 | 20 | 333 | 3.2 | 8.0 | 0.10 | 2.29 | 2.29 | 96 | 1017.3 |
| 20260904002505 | 20 | 252 | 3.2 | 14.5 | 0.23 | 2.29 | 2.29 | 96 | 1017.3 |
| 20260904002004 | 20 | 234 | 4.8 | 14.5 | 0.41 | 2.29 | 2.29 | 95 | 1017.2 |
| 20260904001508 | 20 | 225 | 4.8 | 12.9 | 0.53 | 2.29 | 2.29 | 95 | 1017.3 |
| 20260904001006 | 20 | 238 | 4.8 | 16.1 | 0.76 | 2.29 | 2.29 | 95 | 1017.4 |
| 20260904000505 | 20 | 222 | 3.2 | 16.1 | 1.02 | 2.29 | 2.29 | 95 | 1017.3 |
| 20260904000010 | 20 | 241 | 6.4 | 19.3 | 1.19 | 2.29 | 2.29 | 95 | 1017.2 |
| 20260903235504 | 20 | 198 | 8.0 | 20.9 | 1.19 | 2.29 | 2.29 | 95 | 1017.3 |
| 20260903235004 | 20 | 241 | 9.7 | 25.7 | 1.19 | 2.29 | 2.29 | 95 | 1017.2 |
| 20260903234506 | 20 | 222 | 9.7 | 24.1 | 1.17 | 2.26 | 2.26 | 94 | 1017.4 |
| 20260903234005 | 20 | 227 | 11.3 | 24.1 | 1.14 | 2.24 | 2.24 | 94 | 1017.8 |
| 20260903233505 | 20 | 194 | 9.7 | 24.1 | 1.32 | 2.21 | 2.21 | 94 | 1018.1 |
| 20260903233010 | 20 | 194 | 9.7 | 19.3 | 1.47 | 2.18 | 2.18 | 94 | 1018.4 |
| 20260903232503 | 20 | 219 | 4.8 | 20.9 | 1.45 | 2.06 | 2.06 | 93 | 1018.9 |
| 20260903232003 | 20 | 244 | 4.8 | 33.8 | 1.27 | 1.88 | 1.88 | 93 | 1019.3 |
| 20260903231514 | 21 | 198 | 14.5 | 35.4 | 1.14 | 1.75 | 1.75 | 91 | 1018.5 |
| 20260903231002 | 21 | 224 | 20.9 | 41.8 | 0.91 | 1.52 | 1.52 | 90 | 1017.9 |
| 20260903230506 | 22 | 197 | 22.5 | 54.7 | 0.66 | 1.27 | 1.27 | 88 | 1018.2 |
| 20260903230013 | 23 | 139 | 14.5 | 54.7 | 0.48 | 1.09 | 1.09 | 90 | 1017.6 |
| 20260903225505 | 24 | 261 | 3.2 | 11.3 | 0.48 | 1.09 | 1.09 | 89 | 1016.2 |
| 20260903225003 | 25 | 246 | 1.6 | 12.9 | 0.48 | 1.09 | 1.09 | 88 | 1016.0 |
| 20260903224525 | 25 | 204 | 1.6 | 12.9 | 0.48 | 1.09 | 1.09 | 87 | 1015.7 |
| 20260903224003 | 26 | 275 | 8.0 | 11.3 | 0.48 | 1.09 | 1.09 | 84 | 1015.2 |
| 20260903223503 | 26 | 283 | 3.2 | 11.3 | 0.28 | 0.89 | 0.89 | 82 | 1015.6 |
| 20260903223012 | 27 | 263 | 1.6 | 11.3 | 0.10 | 0.71 | 0.71 | 80 | 1015.1 |
| 20260903222506 | 27 | 234 | 6.4 | 11.3 | 0.00 | 0.61 | 0.61 | 77 | 1014.9 |
| 20260903222008 | 27 | 257 | 4.8 | 8.0 | 0.00 | 0.61 | 0.61 | 77 | 1015.0 |
| 20260903221515 | 27 | 221 | 3.2 | 6.4 | 0.00 | 0.61 | 0.61 | 77 | 1015.0 |
| 20260903221003 | 27 | 309 | 0.0 | 11.3 | 0.00 | 0.61 | 0.61 | 76 | 1015.0 |
| 20260903220503 | 27 | 252 | 3.2 | 11.3 | 0.00 | 0.61 | 0.61 | 76 | 1014.7 |
| 20260903220023 | 28 | 238 | 3.2 | 9.7 | 0.00 | 0.61 | 0.61 | 75 | 1014.7 |
| 20260903215504 | 28 | 217 | 3.2 | 9.7 | 0.00 | 0.61 | 0.61 | 74 | 1014.7 |
| 20260903215004 | 28 | 230 | 3.2 | 11.3 | 0.00 | 0.61 | 0.61 | 73 | 1014.6 |
| 20260903214516 | 29 | 215 | 3.2 | 11.3 | 0.00 | 0.61 | 0.61 | 72 | 1014.9 |
| 20260903214007 | 30 | 229 | 3.2 | 9.7 | 0.00 | 0.61 | 0.61 | 71 | 1014.7 |
| 20260903213506 | 30 | 182 | 4.8 | 9.7 | 0.00 | 0.61 | 0.61 | 70 | 1014.7 |
| 20260903213022 | 30 | 261 | 0.0 | 11.3 | 0.00 | 0.61 | 0.61 | 68 | 1014.7 |
| 20260903212505 | 31 | 188 | 3.2 | 11.3 | 0.00 | 0.61 | 0.61 | 66 | 1014.4 |
| 20260903212007 | 32 | 242 | 4.8 | 16.1 | 0.00 | 0.61 | 0.61 | 65 | 1014.1 |
| 20260903211514 | 32 | 140 | 3.2 | 16.1 | 0.00 | 0.61 | 0.61 | 64 | 1014.3 |
| 20260903211007 | 32 | 111 | 6.4 | 19.3 | 0.00 | 0.61 | 0.61 | 63 | 1013.9 |
| 20260903210507 | 32 | 95 | 11.3 | 19.3 | 0.00 | 0.61 | 0.61 | 62 | 1013.8 |
| 20260903210025 | 33 | 102 | 9.7 | 20.9 | 0.00 | 0.61 | 0.61 | 62 | 1013.7 |
| 20260903205506 | 33 | 127 | 6.4 | 24.1 | 0.00 | 0.61 | 0.61 | 62 | 1013.8 |
| 20260903205009 | 34 | 73 | 11.3 | 24.1 | 0.00 | 0.61 | 0.61 | 60 | 1013.7 |
| 20260903204517 | 34 | 76 | 11.3 | 20.9 | 0.00 | 0.61 | 0.61 | 59 | 1013.7 |
| 20260903204007 | 34 | 80 | 8.0 | 24.1 | 0.00 | 0.61 | 0.61 | 59 | 1013.6 |
| 20260903203510 | 34 | 88 | 11.3 | 24.1 | 0.00 | 0.61 | 0.61 | 60 | 1013.7 |
| 20260903203019 | 34 | 89 | 11.3 | 20.9 | 0.00 | 0.61 | 0.61 | 59 | 1013.7 |
| 20260903202508 | 34 | 107 | 9.7 | 20.9 | 0.00 | 0.61 | 0.61 | 60 | 1013.5 |
| 20260903202012 | 34 | 101 | 9.7 | 17.7 | 0.00 | 0.61 | 0.61 | 60 | 1013.6 |
| 20260903201523 | 34 | 58 | 6.4 | 22.5 | 0.00 | 0.61 | 0.61 | 61 | 1013.6 |
| 20260903201007 | 34 | 97 | 9.7 | 25.7 | 0.00 | 0.61 | 0.61 | 60 | 1013.7 |
| 20260903200510 | 34 | 94 | 9.7 | 25.7 | 0.00 | 0.61 | 0.61 | 61 | 1013.9 |
| 20260903200016 | 33 | 108 | 6.4 | 20.9 | 0.00 | 0.61 | 0.61 | 61 | 1014.0 |
| 20260903195507 | 33 | 95 | 6.4 | 20.9 | 0.00 | 0.61 | 0.61 | 61 | 1014.0 |
| 20260903195009 | 33 | 73 | 9.7 | 24.1 | 0.00 | 0.61 | 0.61 | 60 | 1014.1 |
| 20260903194524 | 33 | 92 | 12.9 | 24.1 | 0.00 | 0.61 | 0.61 | 59 | 1013.9 |
| 20260903194014 | 34 | 108 | 11.3 | 22.5 | 0.00 | 0.61 | 0.61 | 60 | 1014.1 |
| 20260903193512 | 34 | 91 | 9.7 | 25.7 | 0.00 | 0.61 | 0.61 | 58 | 1014.2 |
| 20260903193020 | 34 | 61 | 4.8 | 27.4 | 0.00 | 0.61 | 0.61 | 58 | 1014.6 |
| 20260903192511 | 34 | 119 | 11.3 | 27.4 | 0.00 | 0.61 | 0.61 | 58 | 1014.7 |
| 20260903192009 | 34 | 147 | 8.0 | 19.3 | 0.00 | 0.61 | 0.61 | 59 | 1014.7 |
| 20260903191524 | 34 | 98 | 9.7 | 27.4 | 0.00 | 0.61 | 0.61 | 60 | 1014.7 |
| 20260903191010 | 34 | 97 | 12.9 | 27.4 | 0.00 | 0.61 | 0.61 | 61 | 1014.7 |
| 20260903190510 | 34 | 55 | 12.9 | 24.1 | 0.00 | 0.61 | 0.61 | 60 | 1014.9 |
| 20260903190024 | 34 | 95 | 4.8 | 20.9 | 0.00 | 0.61 | 0.61 | 65 | 1015.1 |
| 20260903185513 | 33 | 78 | 9.7 | 22.5 | 0.00 | 0.61 | 0.61 | 62 | 1015.2 |
| 20260903185012 | 33 | 15 | 6.4 | 22.5 | 0.00 | 0.61 | 0.61 | 63 | 1015.3 |
| 20260903184523 | 33 | 57 | 12.9 | 19.3 | 0.00 | 0.61 | 0.61 | 64 | 1015.5 |
| 20260903184013 | 33 | 67 | 8.0 | 24.1 | 0.00 | 0.61 | 0.61 | 63 | 1015.5 |
| 20260903183509 | 33 | 111 | 9.7 | 24.1 | 0.00 | 0.61 | 0.61 | 64 | 1015.6 |
| 20260903183023 | 33 | 96 | 8.0 | 19.3 | 0.00 | 0.61 | 0.61 | 65 | 1015.7 |
| 20260903182510 | 33 | 75 | 11.3 | 22.5 | 0.00 | 0.61 | 0.61 | 65 | 1015.8 |
| 20260903182013 | 33 | 144 | 9.7 | 22.5 | 0.00 | 0.61 | 0.61 | 66 | 1015.8 |
| 20260903181526 | 33 | 111 | 8.0 | 22.5 | 0.00 | 0.61 | 0.61 | 67 | 1015.9 |
| 20260903181011 | 32 | 140 | 11.3 | 22.5 | 0.00 | 0.61 | 0.61 | 65 | 1015.9 |
| 20260903180513 | 32 | 38 | 8.0 | 17.7 | 0.00 | 0.61 | 0.61 | 65 | 1015.9 |
| 20260903180026 | 32 | 92 | 6.4 | 16.1 | 0.00 | 0.61 | 0.61 | 69 | 1015.9 |
| 20260903175514 | 32 | 59 | 6.4 | 19.3 | 0.00 | 0.61 | 0.61 | 68 | 1016.0 |
| 20260903175014 | 32 | 95 | 4.8 | 22.5 | 0.00 | 0.61 | 0.61 | 70 | 1016.3 |